createdAt,value
2017-06-22T00:01:22.654Z,18.30
2017-06-22T00:03:50.180Z,18.30
2017-06-22T00:06:17.735Z,18.20
2017-06-22T00:08:45.261Z,18.20
2017-06-22T00:11:12.781Z,18.10
2017-06-22T00:13:40.554Z,18.10
2017-06-22T00:16:08.075Z,18.10
2017-06-22T00:18:35.622Z,18.10
2017-06-22T00:21:03.913Z,18.00
2017-06-22T00:23:31.455Z,18.00
2017-06-22T00:25:58.962Z,18.00
2017-06-22T00:28:26.546Z,18.00
2017-06-22T00:30:54.053Z,18.00
2017-06-22T00:33:21.569Z,18.00
2017-06-22T00:35:49.125Z,17.90
2017-06-22T00:38:16.650Z,17.90
2017-06-22T00:40:44.216Z,17.90
2017-06-22T00:43:11.739Z,17.90
2017-06-22T00:45:40.076Z,17.70
2017-06-22T00:48:07.953Z,17.70
2017-06-22T00:50:35.799Z,17.70
2017-06-22T00:53:03.333Z,17.60
2017-06-22T00:55:31.121Z,17.60
2017-06-22T00:57:58.662Z,17.60
2017-06-22T01:00:26.189Z,17.50
2017-06-22T01:02:53.729Z,17.50
2017-06-22T01:05:21.567Z,17.50
2017-06-22T01:07:49.110Z,17.50
2017-06-22T01:10:16.669Z,17.40
2017-06-22T01:12:44.183Z,17.40
2017-06-22T01:15:11.694Z,17.40
2017-06-22T01:17:39.247Z,17.40
2017-06-22T01:20:06.759Z,17.30
2017-06-22T01:22:34.306Z,17.30
2017-06-22T01:25:01.835Z,17.20
2017-06-22T01:27:29.372Z,17.20
2017-06-22T01:29:56.923Z,17.20
2017-06-22T01:32:24.441Z,17.10
2017-06-22T01:34:51.986Z,17.10
2017-06-22T01:37:19.749Z,17.10
2017-06-22T01:39:47.624Z,17.10
2017-06-22T01:42:15.136Z,17.00
2017-06-22T01:44:42.663Z,17.00
2017-06-22T01:47:10.219Z,17.00
2017-06-22T01:49:37.744Z,17.00
2017-06-22T01:52:05.271Z,17.00
2017-06-22T01:54:32.814Z,17.00
2017-06-22T01:57:00.338Z,17.00
2017-06-22T01:59:27.891Z,17.00
2017-06-22T02:01:55.400Z,16.90
2017-06-22T02:04:22.948Z,16.90
2017-06-22T02:06:51.229Z,16.80
2017-06-22T02:09:19.796Z,16.80
2017-06-22T02:11:47.298Z,16.80
2017-06-22T02:14:14.818Z,16.70
2017-06-22T02:16:42.364Z,16.70
2017-06-22T02:19:09.876Z,16.70
2017-06-22T02:21:37.428Z,16.70
2017-06-22T02:24:04.964Z,16.70
2017-06-22T02:26:33.396Z,16.60
2017-06-22T02:29:01.166Z,16.60
2017-06-22T02:31:29.031Z,16.60
2017-06-22T02:33:56.543Z,16.60
2017-06-22T02:36:24.122Z,16.60
2017-06-22T02:38:51.638Z,16.60
2017-06-22T02:41:19.165Z,16.70
2017-06-22T02:43:46.942Z,16.70
2017-06-22T02:46:14.708Z,16.70
2017-06-22T02:48:42.358Z,16.70
2017-06-22T02:51:09.863Z,16.70
2017-06-22T02:53:38.189Z,16.50
2017-06-22T02:56:05.700Z,16.50
2017-06-22T02:58:34.243Z,16.50
2017-06-22T03:01:01.757Z,16.50
2017-06-22T03:03:29.299Z,16.40
2017-06-22T03:05:57.586Z,16.40
2017-06-22T03:08:25.896Z,16.40
2017-06-22T03:10:53.426Z,16.40
2017-06-22T03:13:20.944Z,16.30
2017-06-22T03:15:48.492Z,16.30
2017-06-22T03:18:16.008Z,16.30
2017-06-22T03:20:43.574Z,16.30
2017-06-22T03:23:11.084Z,16.30
2017-06-22T03:25:38.835Z,16.30
2017-06-22T03:28:06.702Z,16.30
2017-06-22T03:30:34.284Z,16.30
2017-06-22T03:33:01.795Z,16.30
2017-06-22T03:35:29.317Z,16.40
2017-06-22T03:37:57.646Z,16.40
2017-06-22T03:40:25.161Z,16.40
2017-06-22T03:42:53.584Z,16.40
2017-06-22T03:45:21.329Z,16.40
2017-06-22T03:47:48.885Z,16.40
2017-06-22T03:50:16.396Z,16.40
2017-06-22T03:52:43.950Z,16.50
2017-06-22T03:55:11.704Z,16.50
2017-06-22T03:57:39.467Z,16.60
2017-06-22T04:00:07.034Z,16.60
2017-06-22T04:02:34.550Z,16.70
2017-06-22T04:05:02.059Z,16.70
2017-06-22T04:07:29.611Z,16.80
2017-06-22T04:09:57.126Z,16.80
2017-06-22T04:12:24.667Z,16.90
2017-06-22T04:14:53.208Z,16.90
2017-06-22T04:17:20.740Z,16.90
2017-06-22T04:19:48.328Z,16.90
2017-06-22T04:22:15.867Z,17.00
2017-06-22T04:24:43.650Z,17.10
2017-06-22T04:27:11.182Z,17.20
2017-06-22T04:29:38.748Z,17.30
2017-06-22T04:32:06.301Z,17.30
2017-06-22T04:34:33.821Z,17.40
2017-06-22T04:37:01.606Z,17.50
2017-06-22T04:39:29.137Z,17.50
2017-06-22T04:41:56.684Z,17.60
2017-06-22T04:44:24.201Z,17.70
2017-06-22T04:46:51.737Z,17.80
2017-06-22T04:49:20.682Z,18.00
2017-06-22T04:51:48.540Z,17.90
2017-06-22T04:54:16.054Z,18.00
2017-06-22T04:56:44.380Z,18.20
2017-06-22T04:59:11.991Z,18.20
2017-06-22T05:01:39.511Z,18.20
2017-06-22T05:04:07.105Z,18.30
2017-06-22T05:06:34.633Z,18.40
2017-06-22T05:09:02.195Z,18.50
2017-06-22T05:11:29.701Z,18.50
2017-06-22T05:13:57.216Z,18.50
2017-06-22T05:16:24.771Z,18.60
2017-06-22T05:18:52.470Z,18.60
2017-06-22T05:21:20.808Z,18.60
2017-06-22T05:23:48.327Z,18.60
2017-06-22T05:26:15.927Z,18.70
2017-06-22T05:28:45.226Z,18.80
2017-06-22T05:31:13.312Z,18.80
2017-06-22T05:33:40.821Z,18.80
2017-06-22T05:36:08.615Z,19.00
2017-06-22T05:38:36.172Z,19.00
2017-06-22T05:41:03.684Z,19.10
2017-06-22T05:43:31.259Z,19.20
2017-06-22T05:45:59.544Z,19.30
2017-06-22T05:48:27.095Z,19.30
2017-06-22T05:50:55.711Z,19.50
2017-06-22T05:53:23.258Z,19.50
2017-06-22T05:55:50.780Z,19.60
2017-06-22T05:58:19.118Z,19.80
2017-06-22T06:00:46.633Z,19.80
2017-06-22T06:03:14.920Z,20.00
2017-06-22T06:05:42.492Z,20.00
2017-06-22T06:08:10.075Z,20.10
2017-06-22T06:10:37.623Z,20.20
2017-06-22T06:13:05.167Z,20.20
2017-06-22T06:15:32.717Z,20.20
2017-06-22T06:18:00.280Z,20.30
2017-06-22T06:20:27.831Z,20.40
2017-06-22T06:22:55.444Z,20.50
2017-06-22T06:25:23.045Z,20.70
2017-06-22T06:27:51.364Z,20.90
2017-06-22T06:30:18.931Z,20.90
2017-06-22T06:32:46.488Z,21.00
2017-06-22T06:35:14.794Z,21.00
2017-06-22T06:37:42.308Z,21.10
2017-06-22T06:40:09.864Z,21.20
2017-06-22T06:42:37.412Z,21.30
2017-06-22T06:45:04.963Z,21.40
2017-06-22T06:47:32.523Z,21.60
2017-06-22T06:50:00.072Z,21.70
2017-06-22T06:52:27.631Z,21.90
2017-06-22T06:54:55.920Z,21.80
2017-06-22T06:57:23.483Z,21.80
2017-06-22T06:59:51.004Z,21.90
2017-06-22T07:02:18.558Z,22.00
2017-06-22T07:04:46.082Z,22.10
2017-06-22T07:07:13.691Z,22.20
2017-06-22T07:09:41.223Z,22.20
2017-06-22T07:12:08.747Z,22.20
2017-06-22T07:14:36.287Z,22.30
2017-06-22T07:17:04.584Z,22.40
2017-06-22T07:19:32.142Z,22.40
2017-06-22T07:21:59.908Z,22.40
2017-06-22T07:24:27.429Z,22.50
2017-06-22T07:26:54.975Z,22.60
2017-06-22T07:29:22.519Z,22.60
2017-06-22T07:31:50.088Z,22.70
2017-06-22T07:34:17.648Z,22.70
2017-06-22T07:36:45.168Z,22.70
2017-06-22T07:39:12.736Z,22.80
2017-06-22T07:41:40.314Z,22.70
2017-06-22T07:44:08.177Z,22.70
2017-06-22T07:46:35.740Z,22.70
2017-06-22T07:49:03.268Z,22.90
2017-06-22T07:51:30.855Z,23.00
2017-06-22T07:53:58.387Z,23.10
2017-06-22T07:56:26.136Z,23.20
2017-06-22T07:58:54.466Z,23.50
2017-06-22T08:01:21.986Z,23.50
2017-06-22T08:03:49.856Z,23.50
2017-06-22T08:06:17.385Z,23.50
2017-06-22T08:08:44.923Z,23.40
2017-06-22T08:11:12.764Z,23.50
2017-06-22T08:13:40.297Z,23.70
2017-06-22T08:16:08.154Z,23.70
2017-06-22T08:18:35.766Z,23.70
2017-06-22T08:21:03.315Z,23.80
2017-06-22T08:23:30.888Z,23.80
2017-06-22T08:25:58.423Z,23.70
2017-06-22T08:28:25.948Z,23.70
2017-06-22T08:30:54.386Z,24.00
2017-06-22T08:33:22.133Z,23.90
2017-06-22T08:35:49.795Z,24.10
2017-06-22T08:38:17.311Z,24.20
2017-06-22T08:40:45.583Z,24.00
2017-06-22T08:43:13.137Z,24.00
2017-06-22T08:45:40.981Z,24.00
2017-06-22T08:48:08.913Z,24.20
2017-06-22T08:50:36.439Z,24.30
2017-06-22T08:53:04.235Z,24.50
2017-06-22T08:55:31.758Z,24.70
2017-06-22T08:57:59.330Z,24.80
2017-06-22T09:00:26.934Z,24.80
2017-06-22T09:02:54.507Z,24.90
2017-06-22T09:05:22.978Z,25.10
2017-06-22T09:07:50.758Z,25.20
2017-06-22T09:10:19.226Z,25.30
2017-06-22T09:12:46.783Z,25.20
2017-06-22T09:15:14.384Z,25.10
2017-06-22T09:17:41.959Z,25.30
2017-06-22T09:20:10.251Z,25.50
2017-06-22T09:22:37.955Z,25.50
2017-06-22T09:25:06.059Z,25.60
2017-06-22T09:27:34.119Z,25.60
2017-06-22T09:30:01.660Z,25.30
2017-06-22T09:32:29.239Z,25.40
2017-06-22T09:34:56.837Z,25.70
2017-06-22T09:37:24.529Z,25.90
2017-06-22T09:39:52.186Z,26.00
2017-06-22T09:42:19.776Z,26.20
2017-06-22T09:44:47.360Z,26.30
2017-06-22T09:47:15.633Z,26.50
2017-06-22T09:49:43.817Z,26.40
2017-06-22T09:52:12.147Z,26.40
2017-06-22T09:54:39.710Z,26.40
2017-06-22T09:57:07.267Z,26.20
2017-06-22T09:59:34.933Z,26.20
2017-06-22T10:02:02.677Z,26.00
2017-06-22T10:04:30.187Z,26.20
2017-06-22T10:06:59.283Z,26.10
2017-06-22T10:09:27.790Z,26.10
2017-06-22T10:11:55.302Z,26.10
2017-06-22T10:14:22.859Z,26.40
2017-06-22T10:16:50.371Z,26.60
2017-06-22T10:19:19.194Z,26.90
2017-06-22T10:21:47.046Z,27.00
2017-06-22T10:24:14.734Z,26.90
2017-06-22T10:26:42.292Z,27.10
2017-06-22T10:29:09.848Z,26.90
2017-06-22T10:31:37.418Z,27.00
2017-06-22T10:34:04.949Z,27.00
2017-06-22T10:36:32.474Z,27.10
2017-06-22T10:39:00.025Z,27.30
2017-06-22T10:41:27.548Z,27.70
2017-06-22T10:43:55.149Z,28.00
2017-06-22T10:46:23.435Z,28.20
2017-06-22T10:48:50.980Z,28.20
2017-06-22T10:51:18.752Z,28.20
2017-06-22T10:53:47.039Z,28.00
2017-06-22T10:56:15.376Z,28.20
2017-06-22T10:58:43.102Z,28.20
2017-06-22T11:01:14.505Z,28.30
2017-06-22T11:03:42.009Z,28.10
2017-06-22T11:06:09.532Z,28.30
2017-06-22T11:08:37.880Z,28.00
2017-06-22T11:11:05.412Z,27.90
2017-06-22T11:13:32.935Z,28.00
2017-06-22T11:16:00.489Z,28.10
2017-06-22T11:18:28.105Z,27.90
2017-06-22T11:20:55.637Z,27.40
2017-06-22T11:23:23.249Z,27.30
2017-06-22T11:25:50.783Z,27.40
2017-06-22T11:28:18.891Z,27.50
2017-06-22T11:30:46.582Z,27.50
2017-06-22T11:33:14.219Z,27.60
2017-06-22T11:35:41.732Z,27.60
2017-06-22T11:38:09.232Z,27.60
2017-06-22T11:40:37.204Z,27.60
2017-06-22T11:43:04.723Z,27.40
2017-06-22T11:45:32.293Z,27.30
2017-06-22T11:47:59.812Z,27.10
2017-06-22T11:50:27.374Z,27.10
2017-06-22T11:52:54.903Z,27.20
2017-06-22T11:55:22.474Z,27.20
2017-06-22T11:57:50.751Z,27.00
2017-06-22T12:00:18.319Z,27.00
2017-06-22T12:02:46.605Z,26.90
2017-06-22T12:05:14.124Z,26.90
2017-06-22T12:07:41.674Z,26.90
2017-06-22T12:10:09.281Z,26.90
2017-06-22T12:12:36.939Z,26.70
2017-06-22T12:15:04.503Z,26.60
2017-06-22T12:17:32.073Z,26.60
2017-06-22T12:19:59.753Z,26.60
2017-06-22T12:22:27.428Z,26.60
2017-06-22T12:24:54.948Z,26.50
2017-06-22T12:27:22.484Z,26.40
2017-06-22T12:29:50.048Z,26.40
2017-06-22T12:32:17.784Z,26.00
2017-06-22T12:34:45.331Z,25.80
2017-06-22T12:37:12.840Z,25.70
2017-06-22T12:39:41.371Z,25.00
2017-06-22T12:42:08.902Z,24.90
2017-06-22T12:44:36.436Z,24.70
2017-06-22T12:47:04.765Z,22.60
2017-06-22T12:49:32.290Z,22.60
2017-06-22T12:51:59.884Z,21.50
2017-06-22T12:54:27.408Z,21.00
2017-06-22T12:56:55.924Z,20.20
2017-06-22T12:59:23.481Z,20.20
2017-06-22T13:01:51.004Z,20.00
2017-06-22T13:04:18.601Z,19.70
2017-06-22T13:06:46.380Z,19.70
2017-06-22T13:09:14.041Z,19.80
2017-06-22T13:11:41.583Z,19.80
2017-06-22T13:14:09.104Z,19.80
2017-06-22T13:16:37.443Z,19.70
2017-06-22T13:19:04.970Z,19.70
2017-06-22T13:21:32.497Z,19.60
2017-06-22T13:24:00.059Z,19.60
2017-06-22T13:26:28.350Z,19.20
2017-06-22T13:28:56.135Z,19.20
2017-06-22T13:31:23.743Z,19.10
2017-06-22T13:33:51.262Z,18.90
2017-06-22T13:36:18.824Z,19.00
2017-06-22T13:38:46.382Z,19.00
2017-06-22T13:41:13.964Z,19.20
2017-06-22T13:43:41.528Z,19.30
2017-06-22T13:46:09.096Z,19.40
2017-06-22T13:48:36.606Z,19.40
2017-06-22T13:51:05.233Z,19.30
2017-06-22T13:53:32.767Z,19.40
2017-06-22T13:56:00.302Z,19.40
2017-06-22T13:58:27.864Z,19.30
2017-06-22T14:00:55.386Z,19.30
2017-06-22T14:03:22.982Z,19.30
2017-06-22T14:05:50.564Z,19.40
2017-06-22T14:08:18.106Z,19.50
2017-06-22T14:10:45.675Z,19.50
2017-06-22T14:13:13.206Z,19.50
2017-06-22T14:15:41.541Z,19.70
2017-06-22T14:18:09.067Z,19.70
2017-06-22T14:20:36.574Z,19.90
2017-06-22T14:23:04.117Z,20.00
2017-06-22T14:25:31.681Z,20.10
2017-06-22T14:27:59.466Z,20.30
2017-06-22T14:30:27.025Z,20.30
2017-06-22T14:32:54.551Z,20.50
2017-06-22T14:35:22.084Z,20.70
2017-06-22T14:37:49.644Z,20.80
2017-06-22T14:40:17.156Z,21.00
2017-06-22T14:42:44.669Z,21.20
2017-06-22T14:45:12.219Z,21.40
2017-06-22T14:47:39.739Z,21.50
2017-06-22T14:50:07.305Z,21.60
2017-06-22T14:52:35.827Z,21.90
2017-06-22T14:55:03.572Z,21.80
2017-06-22T14:57:31.906Z,22.10
2017-06-22T14:59:59.425Z,22.00
2017-06-22T15:02:26.976Z,22.20
2017-06-22T15:04:54.663Z,22.40
2017-06-22T15:07:22.304Z,22.30
2017-06-22T15:09:49.811Z,22.10
2017-06-22T15:12:17.320Z,22.00
2017-06-22T15:14:44.898Z,22.10
2017-06-22T15:17:12.410Z,22.10
2017-06-22T15:19:40.028Z,22.10
2017-06-22T15:22:07.554Z,22.20
2017-06-22T15:24:35.298Z,22.20
2017-06-22T15:27:02.850Z,22.20
2017-06-22T15:29:30.593Z,22.30
2017-06-22T15:31:58.150Z,22.30
2017-06-22T15:34:25.884Z,22.30
2017-06-22T15:36:53.448Z,22.40
2017-06-22T15:39:21.021Z,22.50
2017-06-22T15:41:48.535Z,22.40
2017-06-22T15:44:16.840Z,22.50
2017-06-22T15:46:44.358Z,22.50
2017-06-22T15:49:11.996Z,22.50
2017-06-22T15:51:39.510Z,22.40
2017-06-22T15:54:07.028Z,22.40
2017-06-22T15:56:34.635Z,22.50
2017-06-22T15:59:02.212Z,22.70
2017-06-22T16:01:29.767Z,22.90
2017-06-22T16:03:57.284Z,23.10
2017-06-22T16:06:25.600Z,23.20
2017-06-22T16:08:53.162Z,23.20
2017-06-22T16:11:20.679Z,23.30
2017-06-22T16:13:48.230Z,23.50
2017-06-22T16:16:15.757Z,23.50
2017-06-22T16:18:43.315Z,23.50
2017-06-22T16:21:10.864Z,23.50
2017-06-22T16:23:38.427Z,23.60
2017-06-22T16:26:06.008Z,23.50
2017-06-22T16:28:33.747Z,23.50
2017-06-22T16:31:01.275Z,23.60
2017-06-22T16:33:29.583Z,23.60
2017-06-22T16:35:57.113Z,23.60
2017-06-22T16:38:24.809Z,23.60
2017-06-22T16:40:52.347Z,23.60
2017-06-22T16:43:19.928Z,23.50
2017-06-22T16:45:47.529Z,23.50
2017-06-22T16:48:15.069Z,23.50
2017-06-22T16:50:42.628Z,23.50
2017-06-22T16:53:10.186Z,23.50
2017-06-22T16:55:37.775Z,23.50
2017-06-22T16:58:06.075Z,23.70
2017-06-22T17:00:33.599Z,23.60
2017-06-22T17:03:01.225Z,23.70
2017-06-22T17:05:28.754Z,23.80
2017-06-22T17:07:56.332Z,23.80
2017-06-22T17:10:24.911Z,23.80
2017-06-22T17:12:52.824Z,23.80
2017-06-22T17:15:20.634Z,23.80
2017-06-22T17:17:48.221Z,23.90
2017-06-22T17:20:16.000Z,23.90
2017-06-22T17:22:43.763Z,24.00
2017-06-22T17:25:11.324Z,23.90
2017-06-22T17:27:38.878Z,23.90
2017-06-22T17:30:06.436Z,23.80
2017-06-22T17:32:34.019Z,23.80
2017-06-22T17:35:01.557Z,23.60
2017-06-22T17:37:29.122Z,23.60
2017-06-22T17:39:56.649Z,23.50
2017-06-22T17:42:24.434Z,23.60
2017-06-22T17:44:51.998Z,23.50
2017-06-22T17:47:19.506Z,23.40
2017-06-22T17:49:47.870Z,23.30
2017-06-22T17:52:15.656Z,23.30
2017-06-22T17:54:43.208Z,23.40
2017-06-22T17:57:10.792Z,23.40
2017-06-22T17:59:38.326Z,23.50
2017-06-22T18:02:06.655Z,23.60
2017-06-22T18:04:34.186Z,23.60
2017-06-22T18:07:01.738Z,23.70
2017-06-22T18:09:29.331Z,23.50
2017-06-22T18:11:56.862Z,23.50
2017-06-22T18:14:24.421Z,23.50
2017-06-22T18:16:51.949Z,23.50
2017-06-22T18:19:19.467Z,23.30
2017-06-22T18:21:47.042Z,23.10
2017-06-22T18:24:14.549Z,23.00
2017-06-22T18:26:42.075Z,23.00
2017-06-22T18:29:09.646Z,22.90
2017-06-22T18:31:38.308Z,22.80
2017-06-22T18:34:06.172Z,22.80
2017-06-22T18:36:33.688Z,22.70
2017-06-22T18:39:01.238Z,22.80
2017-06-22T18:41:29.536Z,22.70
2017-06-22T18:43:57.115Z,22.70
2017-06-22T18:46:24.637Z,22.70
2017-06-22T18:48:52.920Z,22.60
2017-06-22T18:51:20.489Z,22.50
2017-06-22T18:53:48.073Z,22.60
2017-06-22T18:56:15.641Z,22.60
2017-06-22T18:58:43.172Z,22.60
2017-06-22T19:01:10.695Z,22.70
2017-06-22T19:03:38.262Z,22.70
2017-06-22T19:06:06.562Z,22.70
2017-06-22T19:08:34.139Z,22.70
2017-06-22T19:11:01.663Z,22.70
2017-06-22T19:13:29.959Z,22.70
2017-06-22T19:15:57.517Z,22.70
2017-06-22T19:18:25.087Z,22.70
2017-06-22T19:20:52.619Z,22.70
2017-06-22T19:23:20.974Z,22.60
2017-06-22T19:25:48.544Z,22.60
2017-06-22T19:28:16.062Z,22.70
2017-06-22T19:30:43.587Z,22.70
2017-06-22T19:33:11.157Z,22.60
2017-06-22T19:35:38.683Z,22.60
2017-06-22T19:38:06.284Z,22.60
2017-06-22T19:40:34.037Z,22.60
2017-06-22T19:43:02.547Z,22.60
2017-06-22T19:45:30.187Z,22.60
2017-06-22T19:47:57.726Z,22.60
2017-06-22T19:50:26.072Z,22.50
2017-06-22T19:52:54.241Z,22.40
2017-06-22T19:55:21.822Z,22.40
2017-06-22T19:57:50.632Z,22.30
2017-06-22T20:00:18.213Z,22.10
2017-06-22T20:02:45.751Z,22.00
2017-06-22T20:05:14.107Z,21.10
2017-06-22T20:07:41.655Z,21.10
2017-06-22T20:10:09.241Z,20.00
2017-06-22T20:12:38.496Z,19.10
2017-06-22T20:15:07.187Z,18.60
2017-06-22T20:17:35.572Z,18.40
2017-06-22T20:20:03.317Z,18.40
2017-06-22T20:22:31.200Z,18.40
2017-06-22T20:24:58.727Z,18.40
2017-06-22T20:27:26.253Z,18.40
2017-06-22T20:29:53.843Z,18.40
2017-06-22T20:32:21.372Z,18.40
2017-06-22T20:34:49.156Z,18.50
2017-06-22T20:37:16.899Z,18.50
2017-06-22T20:39:45.196Z,18.40
2017-06-22T20:42:12.875Z,18.40
2017-06-22T20:44:40.401Z,18.30
2017-06-22T20:47:08.692Z,18.20
2017-06-22T20:49:37.050Z,18.20
2017-06-22T20:52:05.343Z,18.20
2017-06-22T20:54:32.908Z,18.20
2017-06-22T20:57:00.485Z,18.30
2017-06-22T20:59:28.043Z,18.30
2017-06-22T21:01:55.584Z,18.30
2017-06-22T21:04:23.910Z,18.30
2017-06-22T21:06:51.545Z,18.30
2017-06-22T21:09:19.112Z,18.40
2017-06-22T21:11:46.723Z,18.40
2017-06-22T21:14:14.507Z,18.40
2017-06-22T21:16:42.896Z,18.40
2017-06-22T21:19:10.602Z,18.40
2017-06-22T21:21:38.128Z,18.40
2017-06-22T21:24:05.659Z,18.40
2017-06-22T21:26:33.981Z,18.40
2017-06-22T21:29:01.498Z,18.30
2017-06-22T21:31:29.053Z,18.30
2017-06-22T21:33:57.327Z,18.20
2017-06-22T21:36:24.886Z,18.20
2017-06-22T21:38:52.500Z,18.10
2017-06-22T21:41:20.163Z,18.00
2017-06-22T21:43:47.940Z,18.00
2017-06-22T21:46:15.491Z,18.00
2017-06-22T21:48:43.048Z,18.00
2017-06-22T21:51:10.571Z,17.90
2017-06-22T21:53:38.132Z,17.90
2017-06-22T21:56:05.664Z,17.90
2017-06-22T21:58:33.666Z,17.90
2017-06-22T22:01:01.284Z,17.90
2017-06-22T22:03:28.817Z,17.90
2017-06-22T22:05:56.398Z,17.90
2017-06-22T22:08:23.932Z,17.90
2017-06-22T22:10:51.494Z,17.80
2017-06-22T22:13:19.022Z,17.80
2017-06-22T22:15:46.581Z,17.90
2017-06-22T22:18:14.102Z,17.80
2017-06-22T22:20:41.908Z,17.80
2017-06-22T22:23:09.450Z,17.90
2017-06-22T22:25:37.069Z,17.80
2017-06-22T22:28:04.619Z,17.80
2017-06-22T22:30:32.398Z,17.80
2017-06-22T22:32:59.950Z,17.80
2017-06-22T22:35:27.632Z,17.80
2017-06-22T22:37:55.191Z,17.80
2017-06-22T22:40:22.706Z,17.80
2017-06-22T22:42:50.503Z,17.80
2017-06-22T22:45:18.027Z,17.90
2017-06-22T22:47:45.588Z,17.90
2017-06-22T22:50:13.206Z,17.90
2017-06-22T22:52:40.757Z,17.90
2017-06-22T22:55:08.539Z,17.90
2017-06-22T22:57:36.215Z,17.90
2017-06-22T23:00:04.049Z,17.90
2017-06-22T23:02:31.570Z,17.90
2017-06-22T23:04:59.199Z,18.00
2017-06-22T23:07:27.052Z,18.00
2017-06-22T23:09:54.611Z,18.00
2017-06-22T23:12:22.168Z,18.00
2017-06-22T23:14:50.012Z,18.00
2017-06-22T23:17:17.555Z,18.00
2017-06-22T23:19:45.075Z,18.00
2017-06-22T23:22:12.641Z,18.00
2017-06-22T23:24:40.205Z,18.00
2017-06-22T23:27:07.740Z,18.00
2017-06-22T23:29:35.295Z,18.00
2017-06-22T23:32:02.832Z,18.00
2017-06-22T23:34:30.394Z,18.10
2017-06-22T23:36:58.155Z,18.10
2017-06-22T23:39:26.020Z,18.10
2017-06-22T23:41:53.537Z,18.10
2017-06-22T23:44:21.059Z,18.10
2017-06-22T23:46:48.903Z,18.10
2017-06-22T23:49:16.441Z,18.10
2017-06-22T23:51:43.989Z,18.10
2017-06-22T23:54:11.507Z,18.10
2017-06-22T23:56:39.053Z,18.10
2017-06-22T23:59:06.568Z,18.10
